Terminal Aerodrome Forecast
Issued by NWS

Home | Current Version | Previous Version | Text Only | Print | Product List | Glossary On
Versions: 1 2 3 4 5 6 7 8 9 10 11 12 13 14 15 16 17 18 19
000
FTUS41 KBTV 220520
TAFMSS
TAF
KMSS 220520Z 2206/2306 03003KT 6SM BR OVC006
     FM221600 05005KT P6SM SCT007 OVC015
     FM230500 05005KT P6SM VCSH OVC013=

USA.gov is the U.S. government's official web portal to all federal, state and local government web resources and services.